Time;durP1;ratioP1;P1;durP2;ratioP2;P2;SDS_P1;SDS_P2;PMS_P1;PMS_P2;Temp;Humidity;BMP_temperature;BMP_pressure;BME280_temperature;BME280_humidity;BME280_pressure;Samples;Min_cycle;Max_cycle;Signal;HPM_P1;HPM_P2
2024/03/10 00:01:01;;;;;;;7.40;4.78;;;;;;;;;;5013730;28;20033;-64
2024/03/10 00:03:27;;;;;;;5.90;4.65;;;;;;;;;;5013440;28;20044;-62
2024/03/10 00:05:52;;;;;;;6.65;4.72;;;;;;;;;;5016177;28;20042;-63
2024/03/10 00:08:17;;;;;;;6.82;5.30;;;;;;;;;;5018893;28;20025;-62
2024/03/10 00:10:46;;;;;;;5.67;5.03;;;;;;;;;;5014316;28;20045;-61
2024/03/10 00:13:12;;;;;;;6.40;4.70;;;;;;;;;;5012875;28;20038;-60
2024/03/10 00:15:37;;;;;;;7.38;5.38;;;;;;;;;;5014497;28;20045;-62
2024/03/10 00:18:04;;;;;;;5.95;4.82;;;;;;;;;;5012998;28;20116;-62
2024/03/10 00:20:30;;;;;;;5.97;4.97;;;;;;;;;;5014536;28;20050;-62
2024/03/10 00:22:55;;;;;;;6.57;5.13;;;;;;;;;;5012784;28;20080;-63
2024/03/10 00:25:20;;;;;;;6.40;4.85;;;;;;;;;;5022952;28;20096;-62
2024/03/10 00:27:46;;;;;;;6.05;4.85;;;;;;;;;;5028646;28;20040;-62
2024/03/10 00:30:12;;;;;;;6.00;4.75;;;;;;;;;;5029365;28;20431;-63
2024/03/10 00:32:37;;;;;;;6.68;5.05;;;;;;;;;;5028751;28;20655;-62
2024/03/10 00:35:05;;;;;;;6.90;4.95;;;;;;;;;;5027860;28;20029;-62
2024/03/10 00:37:38;;;;;;;6.70;4.93;;;;;;;;;;5028857;28;20048;-61
2024/03/10 00:40:07;;;;;;;6.50;5.00;;;;;;;;;;5029554;28;20045;-62
2024/03/10 00:42:33;;;;;;;6.72;5.28;;;;;;;;;;5030892;28;20037;-62
2024/03/10 00:44:58;;;;;;;5.80;4.70;;;;;;;;;;5027355;28;20033;-63
2024/03/10 00:47:24;;;;;;;6.43;4.93;;;;;;;;;;5025839;28;20428;-63
2024/03/10 00:49:49;;;;;;;7.15;4.93;;;;;;;;;;5029780;28;20053;-62
2024/03/10 00:52:15;;;;;;;6.07;5.05;;;;;;;;;;5028012;28;20048;-64
2024/03/10 00:54:46;;;;;;;5.93;4.60;;;;;;;;;;5027961;28;20041;-61
2024/03/10 00:57:11;;;;;;;6.22;4.95;;;;;;;;;;5029126;28;20511;-63
2024/03/10 00:59:36;;;;;;;6.60;4.82;;;;;;;;;;5026198;28;20072;-63
2024/03/10 01:05:05;;;;;;;6.53;4.90;;;;;;;;;;5009098;28;20040;-64
2024/03/10 01:07:31;;;;;;;6.03;4.57;;;;;;;;;;5027051;28;20140;-55
2024/03/10 01:09:56;;;;;;;6.03;4.65;;;;;;;;;;5021169;28;20122;-57
2024/03/10 01:12:21;;;;;;;5.85;4.97;;;;;;;;;;5016672;28;20109;-56
2024/03/10 01:14:47;;;;;;;6.60;5.05;;;;;;;;;;5019594;28;20485;-55
2024/03/10 01:17:13;;;;;;;6.63;5.10;;;;;;;;;;5022032;28;20540;-55
2024/03/10 01:19:39;;;;;;;6.53;5.18;;;;;;;;;;5010611;28;20500;-58
2024/03/10 01:22:04;;;;;;;6.30;5.00;;;;;;;;;;5016594;28;20100;-67
2024/03/10 01:24:30;;;;;;;5.50;4.40;;;;;;;;;;5022838;28;20033;-57
2024/03/10 01:26:57;;;;;;;6.03;5.00;;;;;;;;;;5019812;28;20026;-64
2024/03/10 01:29:23;;;;;;;5.55;4.95;;;;;;;;;;5021185;28;20562;-56
2024/03/10 01:31:48;;;;;;;5.60;4.35;;;;;;;;;;5022230;28;20100;-56
2024/03/10 01:34:15;;;;;;;5.68;4.60;;;;;;;;;;5020975;28;20033;-58
2024/03/10 01:36:40;;;;;;;5.82;4.55;;;;;;;;;;5022207;28;20029;-62
2024/03/10 01:39:05;;;;;;;6.30;5.10;;;;;;;;;;5022909;28;20396;-55
2024/03/10 01:41:33;;;;;;;5.63;4.60;;;;;;;;;;5023241;28;20112;-56
2024/03/10 01:43:59;;;;;;;6.68;4.85;;;;;;;;;;5021869;28;20044;-55
2024/03/10 01:46:24;;;;;;;5.93;4.47;;;;;;;;;;5023815;28;20013;-55
2024/03/10 01:48:49;;;;;;;6.20;5.15;;;;;;;;;;5026394;28;20060;-58
2024/03/10 01:51:15;;;;;;;6.80;5.07;;;;;;;;;;5016534;28;20481;-55
2024/03/10 01:53:40;;;;;;;6.18;4.93;;;;;;;;;;5019262;28;20649;-67
2024/03/10 01:56:05;;;;;;;5.55;4.38;;;;;;;;;;5022505;28;20049;-55
2024/03/10 01:58:31;;;;;;;5.85;4.55;;;;;;;;;;5024791;28;20037;-55
2024/03/10 02:00:58;;;;;;;6.22;5.13;;;;;;;;;;5024618;28;20033;-56
2024/03/10 02:03:23;;;;;;;6.30;5.05;;;;;;;;;;5022561;28;20028;-56
2024/03/10 02:05:49;;;;;;;7.18;5.00;;;;;;;;;;5024237;28;20030;-58
2024/03/10 02:08:14;;;;;;;6.50;4.53;;;;;;;;;;5026851;28;20125;-59
2024/03/10 02:10:40;;;;;;;5.50;4.43;;;;;;;;;;5026741;28;20052;-56
2024/03/10 02:13:05;;;;;;;6.53;5.03;;;;;;;;;;5023078;28;20050;-63
2024/03/10 02:15:30;;;;;;;5.95;4.90;;;;;;;;;;5018640;28;20436;-56
2024/03/10 02:17:57;;;;;;;6.78;5.30;;;;;;;;;;5021292;28;20033;-55
2024/03/10 02:20:23;;;;;;;6.20;4.78;;;;;;;;;;5025625;28;20064;-55
2024/03/10 02:22:49;;;;;;;6.53;5.00;;;;;;;;;;5026043;28;20048;-60
2024/03/10 02:25:14;;;;;;;6.07;4.93;;;;;;;;;;5025391;28;20025;-62
2024/03/10 02:27:44;;;;;;;6.10;4.80;;;;;;;;;;5019728;28;20032;-55
2024/03/10 02:49:04;;;;;;;6.93;4.90;;;;;;;;;;5023699;28;20187;-56
2024/03/10 02:51:29;;;;;;;6.00;4.88;;;;;;;;;;5024991;28;20121;-61
2024/03/10 02:53:55;;;;;;;6.45;5.35;;;;;;;;;;5025642;28;20107;-61
2024/03/10 02:56:21;;;;;;;5.82;4.65;;;;;;;;;;5024002;28;20044;-56
2024/03/10 02:58:46;;;;;;;5.72;4.65;;;;;;;;;;5020818;28;20033;-57
2024/03/10 03:01:11;;;;;;;6.47;4.82;;;;;;;;;;5023561;28;20032;-65
2024/03/10 03:03:36;;;;;;;6.18;4.90;;;;;;;;;;5025790;28;20091;-55
2024/03/10 03:06:02;;;;;;;5.80;4.55;;;;;;;;;;5023437;28;20036;-56
2024/03/10 03:08:27;;;;;;;6.20;4.70;;;;;;;;;;5013019;28;20022;-60
2024/03/10 03:10:52;;;;;;;5.97;4.65;;;;;;;;;;5015770;28;20536;-55
2024/03/10 03:13:18;;;;;;;6.10;5.00;;;;;;;;;;5023283;28;20017;-56
2024/03/10 03:15:43;;;;;;;6.43;4.85;;;;;;;;;;5025385;28;20057;-56
2024/03/10 03:18:08;;;;;;;6.40;5.35;;;;;;;;;;5025123;28;20025;-55
2024/03/10 03:20:35;;;;;;;5.82;5.10;;;;;;;;;;5026021;28;20072;-56
2024/03/10 03:23:00;;;;;;;6.85;4.90;;;;;;;;;;5026172;28;20021;-62
2024/03/10 03:25:25;;;;;;;5.65;4.68;;;;;;;;;;5024157;28;20485;-59
2024/03/10 03:27:51;;;;;;;6.03;4.88;;;;;;;;;;5025971;28;20028;-65
2024/03/10 03:30:16;;;;;;;6.35;4.88;;;;;;;;;;5025997;28;20495;-56
2024/03/10 03:32:42;;;;;;;6.65;4.90;;;;;;;;;;5025303;28;20096;-60
2024/03/10 03:35:07;;;;;;;6.85;5.20;;;;;;;;;;5025704;28;20017;-56
2024/03/10 03:37:33;;;;;;;6.53;4.88;;;;;;;;;;5024425;28;20096;-56
2024/03/10 03:39:58;;;;;;;5.70;4.90;;;;;;;;;;5027775;28;20037;-59
2024/03/10 03:42:23;;;;;;;6.15;4.65;;;;;;;;;;5026085;28;20121;-65
2024/03/10 03:44:51;;;;;;;6.32;4.90;;;;;;;;;;5024749;28;20477;-59
2024/03/10 03:47:17;;;;;;;7.10;5.20;;;;;;;;;;5024938;28;20480;-56
2024/03/10 03:49:44;;;;;;;5.55;4.68;;;;;;;;;;5022557;28;20040;-59
2024/03/10 03:52:09;;;;;;;5.60;4.57;;;;;;;;;;5018246;28;20373;-57
2024/03/10 03:54:35;;;;;;;5.47;4.30;;;;;;;;;;5025618;28;20535;-61
2024/03/10 03:57:00;;;;;;;5.38;4.63;;;;;;;;;;5019225;28;20365;-61
2024/03/10 03:59:26;;;;;;;5.15;4.43;;;;;;;;;;5024806;28;20051;-56
2024/03/10 04:01:51;;;;;;;5.57;4.63;;;;;;;;;;5021997;28;20041;-57
2024/03/10 04:04:16;;;;;;;6.10;5.13;;;;;;;;;;5015526;28;20042;-62
2024/03/10 04:06:42;;;;;;;6.10;4.90;;;;;;;;;;5024121;28;20064;-56
2024/03/10 04:09:07;;;;;;;6.88;5.10;;;;;;;;;;5023512;28;20034;-56
2024/03/10 04:11:33;;;;;;;6.28;4.80;;;;;;;;;;5023368;28;20043;-56
2024/03/10 04:13:59;;;;;;;6.05;4.85;;;;;;;;;;5024824;28;20456;-56
2024/03/10 04:16:24;;;;;;;5.15;4.28;;;;;;;;;;5022270;28;20520;-56
2024/03/10 04:18:50;;;;;;;5.78;4.53;;;;;;;;;;5021538;28;20033;-57
2024/03/10 04:21:15;;;;;;;5.38;4.50;;;;;;;;;;5023254;28;20112;-56
2024/03/10 04:23:41;;;;;;;5.75;4.45;;;;;;;;;;5025041;28;20955;-56
2024/03/10 04:26:09;;;;;;;6.38;4.55;;;;;;;;;;5023959;28;20446;-66
2024/03/10 04:28:34;;;;;;;7.10;4.70;;;;;;;;;;5021783;28;20037;-58
2024/03/10 04:31:00;;;;;;;5.97;4.55;;;;;;;;;;5023831;28;20044;-60
2024/03/10 04:33:25;;;;;;;5.25;4.30;;;;;;;;;;5024414;28;20546;-62
2024/03/10 04:35:50;;;;;;;6.10;4.30;;;;;;;;;;5024589;28;20049;-69
2024/03/10 04:38:16;;;;;;;5.43;4.40;;;;;;;;;;5024809;28;20033;-57
2024/03/10 04:40:44;;;;;;;5.43;4.35;;;;;;;;;;5021333;28;20056;-56
2024/03/10 04:43:09;;;;;;;6.28;4.70;;;;;;;;;;5024498;28;20465;-56
2024/03/10 04:45:34;;;;;;;5.25;4.30;;;;;;;;;;5023576;28;20033;-56
2024/03/10 04:48:00;;;;;;;5.07;4.40;;;;;;;;;;5023819;28;20037;-57
2024/03/10 04:50:26;;;;;;;5.78;4.10;;;;;;;;;;5023460;28;20417;-63
2024/03/10 04:52:52;;;;;;;5.72;4.38;;;;;;;;;;5038086;28;20025;-56
2024/03/10 04:55:17;;;;;;;5.30;4.18;;;;;;;;;;5024727;28;20493;-60
2024/03/10 04:57:43;;;;;;;5.93;4.43;;;;;;;;;;5023898;28;20044;-57
2024/03/10 05:00:10;;;;;;;5.93;4.32;;;;;;;;;;5023057;28;20042;-59
2024/03/10 05:02:35;;;;;;;5.63;4.50;;;;;;;;;;5018797;28;20125;-57
2024/03/10 05:05:01;;;;;;;6.00;4.60;;;;;;;;;;5024225;28;20141;-66
2024/03/10 05:07:27;;;;;;;5.25;4.15;;;;;;;;;;5023159;28;20032;-56
2024/03/10 05:09:52;;;;;;;5.15;4.20;;;;;;;;;;5023954;28;20029;-56
2024/03/10 05:12:18;;;;;;;5.75;4.18;;;;;;;;;;5024165;28;20045;-66
2024/03/10 05:14:44;;;;;;;5.05;4.03;;;;;;;;;;5024329;28;20530;-59
2024/03/10 05:17:11;;;;;;;6.35;4.38;;;;;;;;;;5024720;28;20091;-57
2024/03/10 05:19:39;;;;;;;5.18;4.10;;;;;;;;;;5024367;28;20171;-65
2024/03/10 05:22:05;;;;;;;5.22;4.18;;;;;;;;;;5028478;28;20025;-57
2024/03/10 05:24:30;;;;;;;5.68;4.30;;;;;;;;;;5028494;28;20056;-61
2024/03/10 05:26:55;;;;;;;5.72;4.30;;;;;;;;;;5028554;28;20034;-57
2024/03/10 05:29:21;;;;;;;7.82;4.50;;;;;;;;;;5021366;28;20041;-56
2024/03/10 05:31:46;;;;;;;4.82;3.88;;;;;;;;;;5023024;28;20034;-57
2024/03/10 05:34:11;;;;;;;5.03;3.95;;;;;;;;;;5017834;28;20512;-58
2024/03/10 05:36:37;;;;;;;4.57;3.55;;;;;;;;;;5020503;28;20109;-63
2024/03/10 05:39:02;;;;;;;5.10;3.85;;;;;;;;;;5021869;28;20045;-62
2024/03/10 05:41:28;;;;;;;5.05;3.92;;;;;;;;;;5024692;28;20037;-76
2024/03/10 05:43:53;;;;;;;5.18;4.13;;;;;;;;;;5027257;28;20440;-65
2024/03/10 05:46:18;;;;;;;5.25;4.30;;;;;;;;;;5025561;28;20080;-58
2024/03/10 05:48:44;;;;;;;5.88;4.30;;;;;;;;;;5026023;28;20485;-57
2024/03/10 05:51:13;;;;;;;5.47;4.07;;;;;;;;;;5026711;28;20037;-56
2024/03/10 05:53:39;;;;;;;5.15;4.25;;;;;;;;;;5024109;28;20111;-59
2024/03/10 05:56:04;;;;;;;4.68;3.85;;;;;;;;;;5026645;28;20042;-61
2024/03/10 05:58:32;;;;;;;6.00;4.32;;;;;;;;;;5025073;28;20050;-57
2024/03/10 06:00:57;;;;;;;5.88;4.25;;;;;;;;;;5027223;28;20040;-58
2024/03/10 06:03:23;;;;;;;5.60;4.22;;;;;;;;;;5029025;28;20042;-59
2024/03/10 06:05:48;;;;;;;5.93;4.40;;;;;;;;;;5022111;28;20029;-57
2024/03/10 06:08:13;;;;;;;5.03;3.97;;;;;;;;;;5025142;28;20156;-60
2024/03/10 06:10:39;;;;;;;5.20;3.95;;;;;;;;;;5026787;28;20406;-61
2024/03/10 06:13:04;;;;;;;4.80;3.80;;;;;;;;;;5024624;28;20451;-57
2024/03/10 06:15:29;;;;;;;5.22;3.92;;;;;;;;;;5026464;28;20032;-62
2024/03/10 06:18:15;;;;;;;5.63;4.50;;;;;;;;;;5026091;28;20034;-56
2024/03/10 06:26:07;;;;;;;6.18;4.47;;;;;;;;;;5027891;28;20044;-59
2024/03/10 06:28:33;;;;;;;5.75;4.28;;;;;;;;;;5026804;28;20124;-60
2024/03/10 06:30:59;;;;;;;5.88;4.13;;;;;;;;;;5026485;28;20037;-63
2024/03/10 06:33:24;;;;;;;4.55;4.00;;;;;;;;;;5028406;28;20060;-61
2024/03/10 06:35:50;;;;;;;6.25;4.22;;;;;;;;;;5028350;28;20077;-63
2024/03/10 06:38:18;;;;;;;6.15;4.40;;;;;;;;;;5026852;28;20029;-62
2024/03/10 06:40:43;;;;;;;5.38;4.15;;;;;;;;;;5029358;28;20053;-73
2024/03/10 06:43:09;;;;;;;5.50;4.07;;;;;;;;;;5026677;28;20588;-63
2024/03/10 06:45:34;;;;;;;5.45;4.18;;;;;;;;;;5030622;28;20497;-63
2024/03/10 06:47:59;;;;;;;4.88;3.78;;;;;;;;;;5033872;28;20044;-64
2024/03/10 06:50:25;;;;;;;4.55;3.67;;;;;;;;;;5029897;28;20026;-69
2024/03/10 06:52:50;;;;;;;5.93;4.43;;;;;;;;;;5024490;28;20075;-61
2024/03/10 06:55:15;;;;;;;5.57;4.57;;;;;;;;;;5024501;28;20034;-57
2024/03/10 06:57:41;;;;;;;5.25;3.88;;;;;;;;;;5027677;28;20052;-61
2024/03/10 07:00:08;;;;;;;5.50;3.88;;;;;;;;;;5023580;28;20112;-56
2024/03/10 07:02:34;;;;;;;6.15;4.35;;;;;;;;;;5025055;28;20512;-61
2024/03/10 07:05:02;;;;;;;4.88;3.92;;;;;;;;;;5024889;28;20034;-56
2024/03/10 07:07:29;;;;;;;5.35;4.40;;;;;;;;;;5023317;28;20038;-59
2024/03/10 07:09:55;;;;;;;5.10;4.10;;;;;;;;;;5019668;28;20072;-66
2024/03/10 07:12:21;;;;;;;4.35;3.92;;;;;;;;;;5024183;28;20061;-56
2024/03/10 07:14:46;;;;;;;5.50;4.20;;;;;;;;;;5022731;28;20501;-57
2024/03/10 07:17:12;;;;;;;4.80;3.92;;;;;;;;;;5024285;28;20034;-56
2024/03/10 07:19:40;;;;;;;5.22;4.10;;;;;;;;;;5022620;28;20080;-57
2024/03/10 07:22:05;;;;;;;5.85;4.10;;;;;;;;;;5015563;28;20102;-59
2024/03/10 07:24:30;;;;;;;5.35;4.18;;;;;;;;;;5015308;28;20041;-57
2024/03/10 07:26:55;;;;;;;5.18;4.07;;;;;;;;;;5014093;28;20033;-57
2024/03/10 07:29:21;;;;;;;5.80;4.55;;;;;;;;;;5011834;28;20026;-57
2024/03/10 07:31:47;;;;;;;5.50;4.20;;;;;;;;;;5014097;28;20026;-57
2024/03/10 07:34:13;;;;;;;6.38;4.50;;;;;;;;;;5014548;28;20485;-56
2024/03/10 07:36:38;;;;;;;5.32;4.13;;;;;;;;;;5009790;28;20037;-57
2024/03/10 07:39:07;;;;;;;5.55;4.20;;;;;;;;;;5012223;28;20099;-61
2024/03/10 07:41:32;;;;;;;5.43;3.95;;;;;;;;;;5010751;28;20034;-57
2024/03/10 07:43:58;;;;;;;5.13;4.13;;;;;;;;;;5012750;28;20141;-55
2024/03/10 07:46:25;;;;;;;5.28;4.05;;;;;;;;;;5016283;28;20028;-60
2024/03/10 07:48:51;;;;;;;5.07;4.03;;;;;;;;;;5012363;28;21484;-56
2024/03/10 07:51:16;;;;;;;5.45;4.38;;;;;;;;;;5010848;28;20027;-56
2024/03/10 07:53:41;;;;;;;5.35;4.00;;;;;;;;;;5010286;28;20064;-57
2024/03/10 07:56:08;;;;;;;5.88;4.13;;;;;;;;;;5008566;28;20738;-56
2024/03/10 07:58:33;;;;;;;5.40;4.38;;;;;;;;;;5017423;28;20022;-56
2024/03/10 08:00:59;;;;;;;6.00;4.55;;;;;;;;;;5012016;28;20041;-55
2024/03/10 08:03:24;;;;;;;5.40;4.10;;;;;;;;;;5010347;28;20028;-58
2024/03/10 08:05:49;;;;;;;5.20;4.38;;;;;;;;;;5012541;28;20032;-58
2024/03/10 08:08:15;;;;;;;5.82;4.80;;;;;;;;;;5013123;28;20018;-56
2024/03/10 08:10:41;;;;;;;5.00;3.90;;;;;;;;;;5018899;28;20021;-56
2024/03/10 08:13:06;;;;;;;5.22;3.92;;;;;;;;;;5012492;28;20033;-64
2024/03/10 08:15:32;;;;;;;5.47;4.28;;;;;;;;;;5009754;28;20861;-60
2024/03/10 08:17:58;;;;;;;5.85;4.40;;;;;;;;;;5010434;28;20040;-56
2024/03/10 08:20:24;;;;;;;5.22;4.18;;;;;;;;;;5009449;28;20564;-56
2024/03/10 08:22:51;;;;;;;5.47;4.28;;;;;;;;;;5011041;28;21554;-61
2024/03/10 08:25:18;;;;;;;7.22;4.63;;;;;;;;;;5017041;28;20035;-63
2024/03/10 08:27:44;;;;;;;5.30;4.30;;;;;;;;;;5017109;28;20034;-56
2024/03/10 08:30:10;;;;;;;5.65;4.40;;;;;;;;;;5010304;28;20471;-58
2024/03/10 08:32:36;;;;;;;6.32;4.40;;;;;;;;;;5010060;28;20037;-57
2024/03/10 08:35:04;;;;;;;5.68;4.20;;;;;;;;;;5011377;28;20445;-62
2024/03/10 08:37:30;;;;;;;5.20;4.55;;;;;;;;;;5011162;28;20049;-66
2024/03/10 08:39:55;;;;;;;4.85;3.78;;;;;;;;;;5010303;28;20042;-57
2024/03/10 08:42:24;;;;;;;5.10;3.85;;;;;;;;;;5009732;28;20464;-57
2024/03/10 08:44:51;;;;;;;6.03;4.15;;;;;;;;;;5012920;28;20037;-57
2024/03/10 08:47:16;;;;;;;5.57;3.97;;;;;;;;;;5010172;28;20497;-56
2024/03/10 08:49:41;;;;;;;5.15;4.05;;;;;;;;;;5007836;28;20052;-59
2024/03/10 08:52:07;;;;;;;5.38;4.47;;;;;;;;;;5009442;28;20140;-57
2024/03/10 08:54:33;;;;;;;6.10;4.03;;;;;;;;;;5010351;28;20033;-56
2024/03/10 08:56:59;;;;;;;5.60;4.28;;;;;;;;;;5013065;28;20057;-58
2024/03/10 08:59:24;;;;;;;5.55;4.05;;;;;;;;;;5014129;28;20513;-58
2024/03/10 09:01:51;;;;;;;8.30;4.18;;;;;;;;;;5014670;28;20156;-59
2024/03/10 09:04:16;;;;;;;5.28;4.03;;;;;;;;;;5018003;28;20045;-58
2024/03/10 09:06:42;;;;;;;5.72;4.05;;;;;;;;;;5014803;28;20037;-57
2024/03/10 09:09:08;;;;;;;5.93;4.20;;;;;;;;;;5015990;28;20115;-59
2024/03/10 09:11:33;;;;;;;5.53;3.72;;;;;;;;;;5014269;28;20040;-63
2024/03/10 09:13:59;;;;;;;5.40;4.00;;;;;;;;;;5013810;28;20045;-61
2024/03/10 09:16:24;;;;;;;6.45;4.53;;;;;;;;;;5014381;28;20034;-61
2024/03/10 09:18:50;;;;;;;5.63;4.60;;;;;;;;;;5015426;28;21914;-65
2024/03/10 09:21:16;;;;;;;5.15;3.97;;;;;;;;;;5013100;28;20057;-59
2024/03/10 09:23:41;;;;;;;5.82;4.10;;;;;;;;;;5015015;28;20044;-59
2024/03/10 09:26:06;;;;;;;5.68;4.15;;;;;;;;;;5015471;28;20030;-62
2024/03/10 09:28:32;;;;;;;5.13;3.90;;;;;;;;;;5013599;28;20060;-60
2024/03/10 09:30:57;;;;;;;7.30;3.95;;;;;;;;;;5012430;28;20045;-60
2024/03/10 09:33:23;;;;;;;4.90;3.63;;;;;;;;;;5013735;28;20548;-61
2024/03/10 09:35:52;;;;;;;5.05;3.90;;;;;;;;;;5013678;28;20480;-58
2024/03/10 09:38:19;;;;;;;6.13;4.10;;;;;;;;;;5012760;28;20114;-60
2024/03/10 09:40:45;;;;;;;4.82;3.83;;;;;;;;;;5013872;28;20042;-58
2024/03/10 09:43:11;;;;;;;15.40;5.30;;;;;;;;;;5013521;28;20084;-60
2024/03/10 09:45:41;;;;;;;9.05;6.68;;;;;;;;;;5022447;28;20409;-57
2024/03/10 09:48:10;;;;;;;8.10;4.88;;;;;;;;;;5012801;28;20033;-61
2024/03/10 09:50:35;;;;;;;6.43;4.05;;;;;;;;;;5017485;28;20037;-63
2024/03/10 09:53:01;;;;;;;6.25;4.35;;;;;;;;;;5012873;28;20033;-61
2024/03/10 09:55:26;;;;;;;10.27;6.03;;;;;;;;;;5014731;28;22062;-57
2024/03/10 09:57:55;;;;;;;7.90;4.57;;;;;;;;;;5012037;28;20097;-61
2024/03/10 10:00:27;;;;;;;5.70;4.07;;;;;;;;;;5017134;28;20685;-56
2024/03/10 10:03:01;;;;;;;5.45;4.13;;;;;;;;;;5012994;28;20099;-56
2024/03/10 10:05:29;;;;;;;6.25;3.97;;;;;;;;;;5012710;28;20034;-56
2024/03/10 10:08:01;;;;;;;6.72;3.97;;;;;;;;;;5014147;28;20045;-56
2024/03/10 10:10:26;;;;;;;5.03;3.45;;;;;;;;;;5014127;28;20136;-56
2024/03/10 10:12:53;;;;;;;5.55;3.85;;;;;;;;;;5012236;28;20098;-56
2024/03/10 10:15:21;;;;;;;5.15;3.95;;;;;;;;;;5012894;28;20064;-56
2024/03/10 10:17:56;;;;;;;6.57;3.95;;;;;;;;;;5012527;28;20965;-61
2024/03/10 10:20:32;;;;;;;12.07;3.80;;;;;;;;;;5012490;28;20479;-57
2024/03/10 10:23:02;;;;;;;6.65;4.22;;;;;;;;;;5024462;28;20409;-58
2024/03/10 10:25:28;;;;;;;9.10;3.90;;;;;;;;;;5033025;28;20421;-61
2024/03/10 10:27:54;;;;;;;6.85;4.20;;;;;;;;;;5026391;28;20147;-59
2024/03/10 10:30:28;;;;;;;6.03;3.75;;;;;;;;;;5026987;28;20116;-58
2024/03/10 10:33:07;;;;;;;6.07;3.25;;;;;;;;;;5025124;28;20040;-58
2024/03/10 10:35:38;;;;;;;6.05;3.75;;;;;;;;;;5020604;28;20048;-60
2024/03/10 10:38:11;;;;;;;4.72;3.45;;;;;;;;;;5012451;28;20079;-63
2024/03/10 10:40:36;;;;;;;4.72;3.38;;;;;;;;;;5012892;28;20072;-57
2024/03/10 10:43:02;;;;;;;4.75;3.50;;;;;;;;;;5009634;28;20509;-57
2024/03/10 10:45:27;;;;;;;5.53;3.72;;;;;;;;;;5012056;28;20061;-58
2024/03/10 10:47:52;;;;;;;4.97;3.55;;;;;;;;;;5011592;28;20124;-58
2024/03/10 10:50:31;;;;;;;5.03;3.55;;;;;;;;;;5014055;28;20072;-57
2024/03/10 10:52:56;;;;;;;4.35;3.30;;;;;;;;;;5013263;28;20112;-64
2024/03/10 10:55:22;;;;;;;4.28;3.40;;;;;;;;;;5012454;28;20160;-58
2024/03/10 10:57:47;;;;;;;4.32;3.67;;;;;;;;;;5011644;28;20052;-62
2024/03/10 11:00:28;;;;;;;4.55;3.05;;;;;;;;;;5013132;28;20048;-58
2024/03/10 11:03:05;;;;;;;5.25;3.58;;;;;;;;;;5010579;28;20041;-58
2024/03/10 11:05:31;;;;;;;4.30;3.10;;;;;;;;;;5012022;28;20501;-59
2024/03/10 11:07:56;;;;;;;4.15;3.40;;;;;;;;;;5012696;28;20076;-57
2024/03/10 11:10:54;;;;;;;5.43;3.85;;;;;;;;;;5011970;28;20033;-58
2024/03/10 11:13:20;;;;;;;4.13;3.25;;;;;;;;;;4970809;28;20041;-62
2024/03/10 11:15:45;;;;;;;6.57;3.53;;;;;;;;;;5011107;28;20076;-60
2024/03/10 11:18:20;;;;;;;5.55;3.80;;;;;;;;;;5012393;28;20050;-60
2024/03/10 11:20:46;;;;;;;7.63;3.92;;;;;;;;;;5011531;28;20132;-59
2024/03/10 11:23:11;;;;;;;5.15;3.85;;;;;;;;;;5013194;28;20481;-60
2024/03/10 11:25:36;;;;;;;6.95;4.03;;;;;;;;;;5011594;28;20040;-57
2024/03/10 11:28:05;;;;;;;7.13;3.80;;;;;;;;;;5011984;28;20052;-58
2024/03/10 11:30:40;;;;;;;5.22;3.53;;;;;;;;;;5011845;28;20080;-59
2024/03/10 11:33:11;;;;;;;5.72;3.65;;;;;;;;;;5008737;28;20037;-61
2024/03/10 11:35:36;;;;;;;6.55;3.78;;;;;;;;;;5011008;28;20056;-57
2024/03/10 11:38:04;;;;;;;8.68;4.00;;;;;;;;;;5012469;28;20509;-58
2024/03/10 11:40:30;;;;;;;5.43;3.58;;;;;;;;;;5011669;28;20529;-58
2024/03/10 11:43:01;;;;;;;4.50;3.60;;;;;;;;;;5009645;28;20045;-57
2024/03/10 11:45:27;;;;;;;5.85;3.40;;;;;;;;;;5012415;28;20465;-57
2024/03/10 11:47:55;;;;;;;6.20;3.40;;;;;;;;;;5011091;28;20033;-62
2024/03/10 11:50:21;;;;;;;5.15;3.67;;;;;;;;;;5012012;28;20133;-58
2024/03/10 11:52:46;;;;;;;6.22;3.70;;;;;;;;;;5009251;28;20021;-57
2024/03/10 11:55:13;;;;;;;4.75;3.45;;;;;;;;;;5008710;28;20029;-57
2024/03/10 11:57:42;;;;;;;4.55;3.17;;;;;;;;;;5011237;28;20091;-58
2024/03/10 12:00:08;;;;;;;5.00;3.28;;;;;;;;;;5009955;28;20037;-57
2024/03/10 12:02:34;;;;;;;5.30;3.63;;;;;;;;;;5008672;28;20037;-59
2024/03/10 12:05:00;;;;;;;5.68;3.53;;;;;;;;;;5009056;28;20091;-57
2024/03/10 12:07:26;;;;;;;6.85;3.47;;;;;;;;;;5010271;28;20497;-57
2024/03/10 12:09:55;;;;;;;4.05;3.03;;;;;;;;;;5011568;28;20037;-57
2024/03/10 12:12:20;;;;;;;4.53;3.42;;;;;;;;;;5008343;28;20026;-59
2024/03/10 12:14:46;;;;;;;4.97;3.75;;;;;;;;;;5010633;28;20781;-57
2024/03/10 12:17:13;;;;;;;5.20;3.67;;;;;;;;;;5012116;28;20520;-58
2024/03/10 12:19:40;;;;;;;4.85;3.53;;;;;;;;;;5010433;28;20472;-57
2024/03/10 12:22:05;;;;;;;4.75;3.40;;;;;;;;;;5008275;28;22118;-57
2024/03/10 12:24:32;;;;;;;5.28;3.30;;;;;;;;;;5009858;28;20822;-60
2024/03/10 12:27:03;;;;;;;4.57;3.28;;;;;;;;;;5009696;28;20506;-57
2024/03/10 12:29:29;;;;;;;4.85;3.30;;;;;;;;;;5009549;28;20051;-58
2024/03/10 12:31:54;;;;;;;4.90;3.50;;;;;;;;;;5009164;28;20041;-60
2024/03/10 12:34:21;;;;;;;4.65;3.38;;;;;;;;;;5006848;28;20125;-59
2024/03/10 12:36:46;;;;;;;5.90;3.42;;;;;;;;;;5005898;28;20049;-63
2024/03/10 12:39:12;;;;;;;4.78;3.50;;;;;;;;;;5008730;28;20399;-58
2024/03/10 12:41:37;;;;;;;4.57;3.58;;;;;;;;;;5009924;28;20104;-60
2024/03/10 12:44:03;;;;;;;4.85;3.53;;;;;;;;;;5007620;28;20045;-65
2024/03/10 12:46:28;;;;;;;4.88;2.92;;;;;;;;;;5010755;28;20563;-61
2024/03/10 12:48:54;;;;;;;4.93;3.63;;;;;;;;;;5011032;28;20378;-59
2024/03/10 12:51:19;;;;;;;4.97;3.63;;;;;;;;;;5010928;28;20026;-58
2024/03/10 12:53:45;;;;;;;4.68;3.42;;;;;;;;;;5010324;28;20065;-58
2024/03/10 12:56:15;;;;;;;4.70;3.47;;;;;;;;;;5015756;28;20508;-59
2024/03/10 12:58:41;;;;;;;4.32;3.08;;;;;;;;;;5011987;28;20080;-59
2024/03/10 13:01:07;;;;;;;4.18;3.15;;;;;;;;;;5010447;28;20608;-60
2024/03/10 13:03:34;;;;;;;4.85;3.38;;;;;;;;;;5008829;28;20065;-61
2024/03/10 13:05:59;;;;;;;4.63;3.17;;;;;;;;;;5015629;28;21118;-61
2024/03/10 13:08:25;;;;;;;5.90;3.78;;;;;;;;;;5010488;28;20724;-57
2024/03/10 13:10:50;;;;;;;6.07;3.45;;;;;;;;;;5010657;28;20050;-64
2024/03/10 13:13:17;;;;;;;4.72;3.40;;;;;;;;;;5012046;28;20071;-58
2024/03/10 13:15:42;;;;;;;5.18;3.33;;;;;;;;;;5009316;28;20037;-58
2024/03/10 13:18:08;;;;;;;4.50;3.10;;;;;;;;;;5010742;28;20040;-58
2024/03/10 13:20:34;;;;;;;5.80;3.40;;;;;;;;;;5011072;28;20049;-62
2024/03/10 13:23:00;;;;;;;3.85;3.15;;;;;;;;;;5010733;28;20128;-67
2024/03/10 13:25:27;;;;;;;4.75;3.15;;;;;;;;;;5007692;28;20120;-68
2024/03/10 13:27:52;;;;;;;5.25;3.25;;;;;;;;;;5010732;28;20134;-67
2024/03/10 13:30:17;;;;;;;4.50;3.05;;;;;;;;;;5010614;28;20073;-63
2024/03/10 13:32:43;;;;;;;5.88;3.13;;;;;;;;;;5011059;28;20140;-61
2024/03/10 13:35:08;;;;;;;4.55;3.25;;;;;;;;;;5008845;28;20080;-61
2024/03/10 13:37:34;;;;;;;4.38;3.33;;;;;;;;;;5011107;28;20049;-61
2024/03/10 13:40:04;;;;;;;5.65;3.40;;;;;;;;;;5011740;28;20648;-60
2024/03/10 13:42:30;;;;;;;;;;;;;;;;;;5012534;28;20056;-65
2024/03/10 13:44:55;;;;;;;4.70;3.10;;;;;;;;;;5013630;28;19924;-57
2024/03/10 13:47:20;;;;;;;3.95;3.00;;;;;;;;;;5013184;28;20347;-63
2024/03/10 13:49:46;;;;;;;4.47;3.20;;;;;;;;;;5016587;28;20047;-58
2024/03/10 13:52:15;;;;;;;5.35;3.45;;;;;;;;;;5022639;28;20537;-61
2024/03/10 13:54:42;;;;;;;4.00;2.95;;;;;;;;;;5024831;28;20060;-66
2024/03/10 13:57:09;;;;;;;4.80;2.83;;;;;;;;;;5017976;28;20265;-58
2024/03/10 13:59:35;;;;;;;4.18;3.20;;;;;;;;;;5014314;28;20845;-61
2024/03/10 14:02:00;;;;;;;5.75;3.95;;;;;;;;;;5013653;28;20056;-58
2024/03/10 14:04:26;;;;;;;6.28;3.80;;;;;;;;;;5010875;28;20472;-67
2024/03/10 14:06:51;;;;;;;6.75;3.53;;;;;;;;;;5016313;28;20528;-67
2024/03/10 14:09:17;;;;;;;5.70;3.80;;;;;;;;;;5012446;28;20500;-62
2024/03/10 14:11:42;;;;;;;5.03;3.50;;;;;;;;;;5014519;28;20302;-58
2024/03/10 14:14:07;;;;;;;4.88;3.45;;;;;;;;;;5013277;28;20162;-59
2024/03/10 14:16:34;;;;;;;5.38;3.40;;;;;;;;;;5011964;28;20044;-57
2024/03/10 14:19:00;;;;;;;6.13;3.60;;;;;;;;;;5012897;28;20144;-64
2024/03/10 14:21:26;;;;;;;5.78;3.80;;;;;;;;;;5017063;28;20041;-62
2024/03/10 14:23:52;;;;;;;4.07;3.47;;;;;;;;;;5015898;28;20041;-65
2024/03/10 14:26:18;;;;;;;4.85;3.40;;;;;;;;;;5011414;28;20575;-58
2024/03/10 14:28:44;;;;;;;5.90;3.63;;;;;;;;;;5011482;28;20155;-57
2024/03/10 14:31:10;;;;;;;4.70;3.38;;;;;;;;;;5013048;28;20132;-57
2024/03/10 14:33:38;;;;;;;5.88;3.55;;;;;;;;;;5013780;28;20118;-60
2024/03/10 14:36:03;;;;;;;5.53;3.65;;;;;;;;;;5012517;28;20044;-59
2024/03/10 14:38:32;;;;;;;6.60;4.10;;;;;;;;;;5011360;28;20030;-60
2024/03/10 14:41:00;;;;;;;8.73;4.10;;;;;;;;;;5011720;28;20037;-56
2024/03/10 14:43:25;;;;;;;7.82;3.85;;;;;;;;;;5015575;28;20037;-65
2024/03/10 14:45:52;;;;;;;6.32;4.18;;;;;;;;;;5016682;28;20100;-58
2024/03/10 14:48:17;;;;;;;8.90;3.70;;;;;;;;;;5014844;28;20524;-57
2024/03/10 14:50:42;;;;;;;7.55;4.15;;;;;;;;;;5012864;28;20022;-56
2024/03/10 14:53:08;;;;;;;8.30;3.70;;;;;;;;;;5011954;28;20030;-64
2024/03/10 14:55:34;;;;;;;9.00;4.18;;;;;;;;;;5011632;28;20586;-59
2024/03/10 14:58:04;;;;;;;7.95;4.10;;;;;;;;;;5009967;28;20052;-57
2024/03/10 15:03:06;;;;;;;10.27;4.25;;;;;;;;;;5012858;28;20041;-56
2024/03/10 15:05:32;;;;;;;9.23;4.38;;;;;;;;;;5013814;28;20033;-56
2024/03/10 15:07:58;;;;;;;7.40;4.05;;;;;;;;;;5013906;28;20037;-59